createdAt,value
2017-11-13T00:00:26.535Z,4.70
2017-11-13T00:02:54.138Z,4.70
2017-11-13T00:05:21.702Z,4.70
2017-11-13T00:07:49.282Z,4.70
2017-11-13T00:10:16.952Z,4.70
2017-11-13T00:12:44.597Z,4.70
2017-11-13T00:15:12.902Z,4.60
2017-11-13T00:17:40.504Z,4.60
2017-11-13T00:20:08.080Z,4.60
2017-11-13T00:22:35.705Z,4.60
2017-11-13T00:25:03.276Z,4.50
2017-11-13T00:27:30.835Z,4.50
2017-11-13T00:29:58.437Z,4.50
2017-11-13T00:32:26.761Z,4.50
2017-11-13T00:34:54.346Z,4.50
2017-11-13T00:37:21.916Z,4.50
2017-11-13T00:39:50.333Z,4.40
2017-11-13T00:42:17.979Z,4.40
2017-11-13T00:44:45.544Z,4.40
2017-11-13T00:47:13.178Z,4.40
2017-11-13T00:49:41.511Z,4.20
2017-11-13T00:52:09.102Z,4.20
2017-11-13T00:54:36.668Z,4.10
2017-11-13T00:57:04.270Z,4.00
2017-11-13T00:59:31.838Z,3.90
2017-11-13T01:01:59.430Z,3.80
2017-11-13T01:04:27.021Z,3.70
2017-11-13T01:06:55.430Z,3.50
2017-11-13T01:09:22.997Z,3.50
2017-11-13T01:11:50.694Z,3.60
2017-11-13T01:14:18.343Z,3.70
2017-11-13T01:16:45.931Z,3.70
2017-11-13T01:19:13.506Z,3.70
2017-11-13T01:21:41.067Z,3.70
2017-11-13T01:24:08.639Z,3.70
2017-11-13T01:26:36.974Z,3.70
2017-11-13T01:29:04.588Z,3.70
2017-11-13T01:31:32.919Z,3.50
2017-11-13T01:34:00.488Z,3.50
2017-11-13T01:36:28.080Z,3.50
2017-11-13T01:38:56.522Z,3.50
2017-11-13T01:41:24.093Z,3.50
2017-11-13T01:43:51.840Z,3.50
2017-11-13T01:46:19.478Z,3.50
2017-11-13T01:48:47.066Z,3.50
2017-11-13T01:51:14.648Z,3.50
2017-11-13T01:53:42.268Z,3.50
2017-11-13T01:56:09.843Z,3.50
2017-11-13T01:58:37.431Z,3.50
2017-11-13T02:01:05.006Z,3.40
2017-11-13T02:03:33.372Z,3.30
2017-11-13T02:06:00.963Z,3.30
2017-11-13T02:08:29.379Z,3.40
2017-11-13T02:10:57.059Z,3.40
2017-11-13T02:13:24.657Z,3.40
2017-11-13T02:15:53.012Z,3.50
2017-11-13T02:18:20.658Z,3.50
2017-11-13T02:20:48.215Z,3.50
2017-11-13T02:23:15.791Z,3.60
2017-11-13T02:25:43.347Z,3.60
2017-11-13T02:28:10.910Z,3.60
2017-11-13T02:30:38.479Z,3.60
2017-11-13T02:33:06.061Z,3.70
2017-11-13T02:35:34.466Z,3.60
2017-11-13T02:38:02.027Z,3.60
2017-11-13T02:40:29.603Z,3.70
2017-11-13T02:42:57.251Z,3.70
2017-11-13T02:45:24.861Z,3.70
2017-11-13T02:47:52.450Z,3.80
2017-11-13T02:50:20.768Z,3.70
2017-11-13T02:52:48.355Z,3.70
2017-11-13T02:55:15.907Z,3.70
2017-11-13T02:57:43.479Z,3.70
2017-11-13T03:00:11.065Z,3.60
2017-11-13T03:02:38.655Z,3.50
2017-11-13T03:05:06.264Z,3.50
2017-11-13T03:07:33.843Z,3.50
2017-11-13T03:10:01.432Z,3.50
2017-11-13T03:12:29.044Z,3.60
2017-11-13T03:14:56.615Z,3.60
2017-11-13T03:17:24.199Z,3.70
2017-11-13T03:19:52.553Z,3.80
2017-11-13T03:22:20.127Z,3.80
2017-11-13T03:24:47.752Z,3.80
2017-11-13T03:27:15.325Z,3.90
2017-11-13T03:29:42.908Z,3.90
2017-11-13T03:32:10.485Z,3.90
2017-11-13T03:34:38.847Z,3.90
2017-11-13T03:37:06.432Z,3.90
2017-11-13T03:39:34.792Z,3.90
2017-11-13T03:42:02.403Z,3.90
2017-11-13T03:44:30.786Z,3.90
2017-11-13T03:46:58.562Z,3.90
2017-11-13T03:49:26.145Z,4.00
2017-11-13T03:51:53.707Z,4.00
2017-11-13T03:54:21.291Z,4.10
2017-11-13T03:56:49.660Z,4.10
2017-11-13T03:59:17.250Z,4.10
2017-11-13T04:01:44.811Z,4.10
2017-11-13T04:04:12.407Z,4.20
2017-11-13T04:06:39.967Z,4.10
2017-11-13T04:09:07.527Z,4.20
2017-11-13T04:11:35.125Z,4.20
2017-11-13T04:14:02.747Z,4.10
2017-11-13T04:16:30.325Z,4.10
2017-11-13T04:18:57.917Z,4.10
2017-11-13T04:21:25.496Z,4.10
2017-11-13T04:23:53.127Z,4.10
2017-11-13T04:26:20.688Z,4.10
2017-11-13T04:28:48.275Z,4.00
2017-11-13T04:31:16.615Z,3.80
2017-11-13T04:33:44.202Z,3.80
2017-11-13T04:36:11.744Z,3.80
2017-11-13T04:38:39.380Z,3.80
2017-11-13T04:41:06.964Z,3.90
2017-11-13T04:43:34.534Z,3.90
2017-11-13T04:46:02.147Z,3.90
2017-11-13T04:48:29.735Z,3.90
2017-11-13T04:50:57.304Z,3.90
2017-11-13T04:53:24.879Z,3.80
2017-11-13T04:55:52.440Z,3.80
2017-11-13T04:58:20.059Z,3.80
2017-11-13T05:00:47.633Z,3.80
2017-11-13T05:03:15.386Z,3.80
2017-11-13T05:05:43.004Z,3.80
2017-11-13T05:08:10.549Z,3.80
2017-11-13T05:10:38.204Z,3.80
2017-11-13T05:13:05.805Z,3.80
2017-11-13T05:15:34.155Z,3.90
2017-11-13T05:18:01.743Z,3.90
2017-11-13T05:20:30.128Z,4.00
2017-11-13T05:22:57.691Z,4.00
2017-11-13T05:25:25.332Z,4.00
2017-11-13T05:27:53.691Z,4.10
2017-11-13T05:30:21.258Z,4.10
2017-11-13T05:32:49.114Z,4.20
2017-11-13T05:35:16.699Z,4.20
2017-11-13T05:37:45.047Z,4.10
2017-11-13T05:40:12.627Z,4.10
2017-11-13T05:42:40.320Z,4.10
2017-11-13T05:45:08.653Z,4.00
2017-11-13T05:47:36.267Z,4.00
2017-11-13T05:50:03.817Z,3.90
2017-11-13T05:52:32.145Z,4.00
2017-11-13T05:54:59.735Z,4.00
2017-11-13T05:57:27.414Z,4.00
2017-11-13T05:59:55.772Z,4.10
2017-11-13T06:02:23.348Z,4.10
2017-11-13T06:04:51.694Z,4.20
2017-11-13T06:07:19.273Z,4.20
2017-11-13T06:09:46.888Z,4.30
2017-11-13T06:12:14.455Z,4.30
2017-11-13T06:14:42.041Z,4.30
2017-11-13T06:17:09.663Z,4.40
2017-11-13T06:19:37.292Z,4.40
2017-11-13T06:22:05.655Z,4.40
2017-11-13T06:24:33.224Z,4.40
2017-11-13T06:27:00.799Z,4.40
2017-11-13T06:29:29.150Z,4.30
2017-11-13T06:31:56.724Z,4.30
2017-11-13T06:34:24.335Z,4.30
2017-11-13T06:36:51.928Z,4.30
2017-11-13T06:39:19.519Z,4.20
2017-11-13T06:41:47.841Z,4.20
2017-11-13T06:44:15.426Z,4.20
2017-11-13T06:46:42.993Z,4.20
2017-11-13T06:49:10.555Z,4.30
2017-11-13T06:51:42.148Z,4.30
2017-11-13T06:54:16.532Z,3.90
2017-11-13T06:56:45.478Z,4.20
2017-11-13T06:59:13.080Z,4.20
2017-11-13T07:01:40.672Z,4.30
2017-11-13T07:04:14.414Z,4.30
2017-11-13T07:06:55.022Z,4.30
2017-11-13T07:09:32.413Z,4.20
2017-11-13T07:12:00.888Z,4.20
2017-11-13T07:14:31.577Z,4.20
2017-11-13T07:17:05.259Z,4.50
2017-11-13T07:19:35.299Z,4.50
2017-11-13T07:22:03.806Z,4.60
2017-11-13T07:24:41.272Z,4.70
2017-11-13T07:27:10.152Z,4.70
2017-11-13T07:29:38.684Z,4.70
2017-11-13T07:32:06.277Z,4.70
2017-11-13T07:34:33.861Z,4.80
2017-11-13T07:37:01.498Z,4.80
2017-11-13T07:39:29.065Z,4.80
2017-11-13T07:41:57.480Z,5.00
2017-11-13T07:44:25.131Z,5.00
2017-11-13T07:46:52.728Z,5.00
2017-11-13T07:49:20.307Z,5.00
2017-11-13T07:51:47.935Z,5.00
2017-11-13T07:54:15.527Z,5.00
2017-11-13T07:56:43.121Z,5.00
2017-11-13T07:59:11.464Z,5.20
2017-11-13T08:01:39.466Z,5.10
2017-11-13T08:04:07.832Z,5.20
2017-11-13T08:06:35.424Z,5.20
2017-11-13T08:09:03.021Z,5.30
2017-11-13T08:11:30.595Z,5.40
2017-11-13T08:13:58.187Z,5.60
2017-11-13T08:16:28.260Z,5.60
2017-11-13T08:18:56.551Z,5.70
2017-11-13T08:21:24.406Z,5.80
2017-11-13T08:23:52.025Z,5.90
2017-11-13T08:26:20.397Z,6.00
2017-11-13T08:28:48.801Z,6.10
2017-11-13T08:31:16.370Z,6.10
2017-11-13T08:33:43.941Z,6.20
2017-11-13T08:36:11.550Z,6.30
2017-11-13T08:38:39.131Z,6.40
2017-11-13T08:41:15.585Z,6.50
2017-11-13T08:43:46.363Z,6.50
2017-11-13T08:46:13.973Z,6.50
2017-11-13T08:48:41.541Z,6.60
2017-11-13T08:51:09.896Z,6.90
2017-11-13T08:53:37.480Z,6.90
2017-11-13T08:56:05.827Z,7.20
2017-11-13T08:58:33.388Z,7.20
2017-11-13T09:01:00.989Z,7.60
2017-11-13T09:03:29.339Z,8.10
2017-11-13T09:05:56.920Z,8.10
2017-11-13T09:08:24.531Z,8.20
2017-11-13T09:10:52.118Z,8.50
2017-11-13T09:13:19.691Z,9.30
2017-11-13T09:15:47.277Z,9.60
2017-11-13T09:18:14.869Z,9.40
2017-11-13T09:20:42.457Z,9.10
2017-11-13T09:23:10.042Z,9.50
2017-11-13T09:25:37.615Z,10.00
2017-11-13T09:28:05.958Z,10.30
2017-11-13T09:30:33.535Z,10.30
2017-11-13T09:33:01.175Z,10.70
2017-11-13T09:35:28.791Z,10.60
2017-11-13T09:37:56.382Z,10.40
2017-11-13T09:40:23.930Z,10.30
2017-11-13T09:42:51.552Z,10.50
2017-11-13T09:45:19.131Z,10.20
2017-11-13T09:47:47.503Z,10.10
2017-11-13T09:50:15.831Z,10.90
2017-11-13T09:52:43.425Z,10.90
2017-11-13T09:55:11.004Z,11.20
2017-11-13T09:57:39.391Z,10.90
2017-11-13T10:00:07.722Z,10.90
2017-11-13T10:02:35.523Z,10.90
2017-11-13T10:05:03.911Z,10.40
2017-11-13T10:07:32.260Z,10.20
2017-11-13T10:09:59.845Z,10.10
2017-11-13T10:12:28.182Z,9.60
2017-11-13T10:14:55.800Z,9.60
2017-11-13T10:17:23.380Z,9.40
2017-11-13T10:19:51.003Z,9.30
2017-11-13T10:22:19.325Z,9.10
2017-11-13T10:24:46.896Z,9.10
2017-11-13T10:27:14.527Z,9.10
2017-11-13T10:29:42.095Z,9.00
2017-11-13T10:32:09.668Z,9.00
2017-11-13T10:34:37.249Z,9.10
2017-11-13T10:37:04.817Z,9.30
2017-11-13T10:39:32.395Z,9.70
2017-11-13T10:42:00.022Z,10.10
2017-11-13T10:44:27.616Z,10.20
2017-11-13T10:46:55.200Z,10.20
2017-11-13T10:49:23.537Z,10.40
2017-11-13T10:51:51.218Z,10.40
2017-11-13T10:54:18.776Z,9.90
2017-11-13T10:56:46.361Z,9.50
2017-11-13T10:59:14.763Z,10.30
2017-11-13T11:01:42.403Z,10.20
2017-11-13T11:04:10.747Z,12.00
2017-11-13T11:06:38.395Z,12.00
2017-11-13T11:09:05.987Z,12.70
2017-11-13T11:11:33.792Z,13.10
2017-11-13T11:14:07.056Z,13.70
2017-11-13T11:16:40.342Z,14.30
2017-11-13T11:19:22.805Z,14.10
2017-11-13T11:22:05.339Z,13.70
2017-11-13T11:24:33.972Z,13.60
2017-11-13T11:27:06.960Z,13.30
2017-11-13T11:29:40.858Z,13.00
2017-11-13T11:32:10.923Z,13.00
2017-11-13T11:34:44.403Z,13.00
2017-11-13T11:37:15.621Z,13.00
2017-11-13T11:39:43.186Z,13.50
2017-11-13T11:42:10.868Z,13.80
2017-11-13T11:44:41.111Z,13.90
2017-11-13T11:47:08.682Z,14.20
2017-11-13T11:49:43.046Z,14.20
2017-11-13T11:52:10.639Z,14.20
2017-11-13T11:54:48.101Z,14.10
2017-11-13T11:57:32.441Z,14.10
2017-11-13T12:00:00.025Z,13.80
2017-11-13T12:02:27.588Z,13.70
2017-11-13T12:04:55.984Z,13.60
2017-11-13T12:07:24.310Z,13.70
2017-11-13T12:09:51.896Z,13.70
2017-11-13T12:12:19.500Z,13.70
2017-11-13T12:14:47.093Z,13.30
2017-11-13T12:17:14.733Z,13.20
2017-11-13T12:19:42.312Z,12.80
2017-11-13T12:22:09.900Z,12.50
2017-11-13T12:24:37.488Z,12.50
2017-11-13T12:27:05.092Z,12.80
2017-11-13T12:29:32.708Z,12.50
2017-11-13T12:32:01.081Z,11.80
2017-11-13T12:34:29.434Z,11.50
2017-11-13T12:36:57.013Z,11.50
2017-11-13T12:39:25.368Z,11.10
2017-11-13T12:41:52.995Z,11.00
2017-11-13T12:44:20.563Z,11.00
2017-11-13T12:46:48.151Z,10.90
2017-11-13T12:49:15.786Z,10.80
2017-11-13T12:51:43.371Z,10.80
2017-11-13T12:54:10.950Z,10.60
2017-11-13T12:56:38.536Z,10.50
2017-11-13T12:59:06.863Z,10.40
2017-11-13T13:01:34.443Z,10.40
2017-11-13T13:04:02.052Z,10.40
2017-11-13T13:06:29.664Z,10.30
2017-11-13T13:08:57.254Z,10.30
2017-11-13T13:11:25.665Z,10.00
2017-11-13T13:13:53.431Z,9.90
2017-11-13T13:16:21.041Z,9.80
2017-11-13T13:18:48.636Z,9.60
2017-11-13T13:21:16.975Z,9.60
2017-11-13T13:23:46.529Z,9.60
2017-11-13T13:26:15.649Z,9.70
2017-11-13T13:28:47.823Z,10.00
2017-11-13T13:33:55.066Z,10.30
2017-11-13T13:36:23.834Z,10.10
2017-11-13T13:38:51.511Z,9.70
2017-11-13T13:41:22.511Z,9.30
2017-11-13T13:43:50.136Z,9.00
2017-11-13T13:46:18.535Z,8.50
2017-11-13T13:48:46.107Z,8.50
2017-11-13T13:51:14.985Z,8.50
2017-11-13T13:53:42.591Z,8.40
2017-11-13T13:56:10.281Z,8.30
2017-11-13T13:58:38.047Z,8.30
2017-11-13T14:01:05.589Z,8.30
2017-11-13T14:03:33.163Z,8.30
2017-11-13T14:06:01.187Z,8.40
2017-11-13T14:08:28.748Z,8.50
2017-11-13T14:10:56.331Z,8.60
2017-11-13T14:13:23.943Z,8.60
2017-11-13T14:15:51.527Z,8.60
2017-11-13T14:18:19.234Z,8.50
2017-11-13T14:20:46.831Z,8.60
2017-11-13T14:23:14.423Z,8.50
2017-11-13T14:25:42.843Z,8.40
2017-11-13T14:28:11.253Z,8.40
2017-11-13T14:30:42.040Z,8.40
2017-11-13T14:33:15.072Z,8.50
2017-11-13T14:35:45.285Z,8.60
2017-11-13T14:38:13.892Z,8.70
2017-11-13T14:40:41.516Z,8.70
2017-11-13T14:43:10.388Z,8.60
2017-11-13T14:45:40.239Z,8.50
2017-11-13T14:48:07.891Z,8.50
2017-11-13T14:50:35.457Z,8.40
2017-11-13T14:53:03.848Z,8.20
2017-11-13T14:55:32.182Z,8.10
2017-11-13T14:57:59.774Z,8.10
2017-11-13T15:00:27.587Z,8.00
2017-11-13T15:02:55.172Z,7.90
2017-11-13T15:05:22.825Z,7.80
2017-11-13T15:07:50.422Z,7.80
2017-11-13T15:10:18.766Z,7.80
2017-11-13T15:12:46.367Z,7.80
2017-11-13T15:15:13.925Z,8.00
2017-11-13T15:17:41.570Z,8.10
2017-11-13T15:20:09.137Z,8.10
2017-11-13T15:22:36.731Z,8.10
2017-11-13T15:25:05.079Z,8.00
2017-11-13T15:27:32.671Z,8.00
2017-11-13T15:30:00.255Z,7.90
2017-11-13T15:32:27.908Z,7.70
2017-11-13T15:34:55.556Z,7.50
2017-11-13T15:37:23.159Z,7.30
2017-11-13T15:39:50.799Z,7.20
2017-11-13T15:42:18.414Z,7.10
2017-11-13T15:44:46.018Z,7.00
2017-11-13T15:47:13.606Z,7.00
2017-11-13T15:49:41.221Z,6.90
2017-11-13T15:52:08.855Z,6.80
2017-11-13T15:54:36.480Z,6.80
2017-11-13T15:57:04.103Z,6.80
2017-11-13T15:59:32.437Z,6.90
2017-11-13T16:02:00.008Z,6.90
2017-11-13T16:04:27.656Z,6.90
2017-11-13T16:06:55.260Z,7.00
2017-11-13T16:09:23.605Z,7.00
2017-11-13T16:11:51.167Z,7.00
2017-11-13T16:14:18.821Z,7.10
2017-11-13T16:16:46.399Z,7.10
2017-11-13T16:19:13.963Z,7.10
2017-11-13T16:21:41.599Z,7.20
2017-11-13T16:24:09.217Z,7.20
2017-11-13T16:26:37.567Z,7.30
2017-11-13T16:29:05.184Z,7.30
2017-11-13T16:31:33.544Z,7.20
2017-11-13T16:34:01.216Z,7.20
2017-11-13T16:36:28.790Z,7.30
2017-11-13T16:38:56.392Z,7.30
2017-11-13T16:41:23.973Z,7.30
2017-11-13T16:43:52.366Z,7.20
2017-11-13T16:46:20.743Z,7.20
2017-11-13T16:48:49.101Z,7.10
2017-11-13T16:51:16.717Z,7.10
2017-11-13T16:53:44.336Z,7.10
2017-11-13T16:56:11.925Z,7.10
2017-11-13T16:58:39.487Z,7.10
2017-11-13T17:01:07.096Z,7.00
2017-11-13T17:03:34.675Z,6.90
2017-11-13T17:06:02.307Z,6.80
2017-11-13T17:08:29.888Z,6.80
2017-11-13T17:10:57.496Z,6.80
2017-11-13T17:13:26.012Z,6.80
2017-11-13T17:15:53.586Z,6.80
2017-11-13T17:18:21.118Z,6.90
2017-11-13T17:20:48.682Z,6.90
2017-11-13T17:23:16.343Z,7.00
2017-11-13T17:25:43.966Z,7.00
2017-11-13T17:28:12.540Z,7.00
2017-11-13T17:30:40.889Z,7.00
2017-11-13T17:33:08.634Z,7.00
2017-11-13T17:35:36.240Z,7.00
2017-11-13T17:38:03.861Z,7.00
2017-11-13T17:40:31.453Z,7.00
2017-11-13T17:42:59.096Z,6.90
2017-11-13T17:45:26.693Z,6.90
2017-11-13T17:47:55.055Z,6.80
2017-11-13T17:50:22.673Z,6.70
2017-11-13T17:52:50.290Z,6.70
2017-11-13T17:55:18.689Z,6.60
2017-11-13T17:57:46.304Z,6.60
2017-11-13T18:00:13.902Z,6.50
2017-11-13T18:02:42.271Z,6.50
2017-11-13T18:05:10.623Z,6.50
2017-11-13T18:07:38.242Z,6.50
2017-11-13T18:10:05.859Z,6.40
2017-11-13T18:12:33.522Z,6.40
2017-11-13T18:15:01.123Z,6.40
2017-11-13T18:17:29.756Z,6.50
2017-11-13T18:19:57.345Z,6.50
2017-11-13T18:22:25.731Z,6.50
2017-11-13T18:24:54.147Z,6.50
2017-11-13T18:27:21.728Z,6.40
2017-11-13T18:29:49.348Z,6.40
2017-11-13T18:32:18.680Z,6.50
2017-11-13T18:34:46.336Z,6.50
2017-11-13T18:37:13.942Z,6.50
2017-11-13T18:39:41.525Z,6.60
2017-11-13T18:42:09.993Z,6.60
2017-11-13T18:44:37.579Z,6.60
2017-11-13T18:47:05.935Z,6.60
2017-11-13T18:49:33.522Z,6.60
2017-11-13T18:52:01.139Z,6.60
2017-11-13T18:54:28.797Z,6.60
2017-11-13T18:56:56.404Z,6.60
2017-11-13T18:59:24.759Z,6.50
2017-11-13T19:01:52.328Z,6.50
2017-11-13T19:04:20.717Z,6.50
2017-11-13T19:06:49.274Z,6.50
2017-11-13T19:09:23.139Z,6.50
2017-11-13T19:11:50.748Z,6.50
2017-11-13T19:14:18.378Z,6.50
2017-11-13T19:16:46.326Z,6.50
2017-11-13T19:19:13.911Z,6.50
2017-11-13T19:21:41.500Z,6.50
2017-11-13T19:24:09.103Z,6.40
2017-11-13T19:26:36.700Z,6.40
2017-11-13T19:29:04.350Z,6.40
2017-11-13T19:31:31.965Z,6.40
2017-11-13T19:34:00.327Z,6.40
2017-11-13T19:36:28.156Z,6.30
2017-11-13T19:38:56.524Z,6.30
2017-11-13T19:54:24.800Z,6.30
2017-11-13T19:56:53.924Z,5.70
2017-11-13T19:59:23.391Z,5.50
2017-11-13T20:01:55.137Z,5.40
2017-11-13T20:04:27.884Z,5.40
2017-11-13T20:06:55.526Z,5.30
2017-11-13T20:09:23.899Z,5.30
2017-11-13T20:11:51.559Z,5.20
2017-11-13T20:14:25.945Z,5.20
2017-11-13T20:17:07.639Z,5.10
2017-11-13T20:19:35.392Z,5.10
2017-11-13T20:22:07.142Z,5.10
2017-11-13T20:24:35.898Z,5.00
2017-11-13T20:27:04.045Z,5.10
2017-11-13T20:29:31.623Z,5.20
2017-11-13T20:31:59.259Z,5.30
2017-11-13T20:34:27.341Z,5.40
2017-11-13T20:36:55.010Z,5.40
2017-11-13T20:39:22.615Z,5.50
2017-11-13T20:41:50.244Z,5.60
2017-11-13T20:44:18.859Z,5.60
2017-11-13T20:46:47.195Z,5.70
2017-11-13T20:49:16.304Z,5.70
2017-11-13T20:51:44.013Z,5.70
2017-11-13T20:54:12.480Z,5.60
2017-11-13T20:56:40.936Z,5.60
2017-11-13T20:59:08.559Z,5.60
2017-11-13T21:01:36.240Z,5.60
2017-11-13T21:04:03.844Z,5.50
2017-11-13T21:06:31.479Z,5.50
2017-11-13T21:08:59.087Z,5.50
2017-11-13T21:11:27.484Z,5.50
2017-11-13T21:13:55.108Z,5.50
2017-11-13T21:16:22.777Z,5.50
2017-11-13T21:19:08.418Z,5.60
2017-11-13T21:21:36.494Z,5.60
2017-11-13T21:24:11.762Z,5.50
2017-11-13T21:26:39.572Z,5.60
2017-11-13T21:29:07.995Z,5.60
2017-11-13T21:31:35.595Z,5.60
2017-11-13T21:47:03.232Z,5.60
2017-11-13T21:49:30.829Z,4.90
2017-11-13T21:51:58.461Z,4.90
2017-11-13T21:54:26.082Z,4.90
2017-11-13T21:56:53.662Z,4.90
2017-11-13T21:59:21.388Z,5.00
2017-11-13T22:01:49.016Z,5.00
2017-11-13T22:04:16.655Z,5.00
2017-11-13T22:06:44.228Z,5.00
2017-11-13T22:09:11.886Z,5.00
2017-11-13T22:11:39.485Z,4.90
2017-11-13T22:14:07.820Z,4.90
2017-11-13T22:16:35.559Z,4.80
2017-11-13T22:19:03.135Z,4.80
2017-11-13T22:21:30.721Z,4.80
2017-11-13T22:23:58.303Z,4.70
2017-11-13T22:26:26.668Z,4.70
2017-11-13T22:28:54.287Z,4.70
2017-11-13T22:31:21.857Z,4.70
2017-11-13T22:33:49.445Z,4.70
2017-11-13T22:36:16.996Z,4.70
2017-11-13T22:38:44.586Z,4.70
2017-11-13T22:41:12.920Z,4.70
2017-11-13T22:43:40.548Z,4.60
2017-11-13T22:46:08.111Z,4.70
2017-11-13T22:48:35.683Z,4.70
2017-11-13T22:51:03.263Z,4.70
2017-11-13T22:53:30.823Z,4.60
2017-11-13T22:55:58.418Z,4.50
2017-11-13T22:58:25.979Z,4.50
2017-11-13T23:00:53.575Z,4.40
2017-11-13T23:03:21.156Z,4.30
2017-11-13T23:05:48.764Z,4.30
2017-11-13T23:08:16.337Z,4.20
2017-11-13T23:10:44.680Z,4.10
2017-11-13T23:13:12.255Z,4.10
2017-11-13T23:15:39.828Z,4.10
2017-11-13T23:18:08.204Z,4.00
2017-11-13T23:20:35.800Z,4.00
2017-11-13T23:23:03.356Z,3.90
2017-11-13T23:25:30.946Z,3.90
2017-11-13T23:27:58.521Z,3.80
2017-11-13T23:30:26.113Z,3.80
2017-11-13T23:32:54.485Z,3.80
2017-11-13T23:35:22.104Z,3.80
2017-11-13T23:37:49.688Z,3.80
2017-11-13T23:40:17.432Z,3.70
2017-11-13T23:42:45.000Z,3.70
2017-11-13T23:45:12.591Z,3.70
2017-11-13T23:47:40.251Z,3.70
2017-11-13T23:50:07.844Z,3.60
2017-11-13T23:52:35.459Z,3.60
2017-11-13T23:55:03.032Z,3.50
2017-11-13T23:57:30.610Z,3.50
2017-11-13T23:59:58.959Z,3.40
